createdAt,value
2023-05-15T00:08:23.088Z,100258.28
2023-05-15T00:18:24.964Z,100245.03
2023-05-15T00:28:26.869Z,100242.38
2023-05-15T00:38:28.762Z,100226.44
2023-05-15T00:48:46.943Z,100227.69
2023-05-15T00:58:50.925Z,100245.63
2023-05-15T01:08:56.502Z,100218.13
2023-05-15T01:19:05.958Z,100204.81
2023-05-15T01:29:45.788Z,100184.81
2023-05-15T01:39:51.951Z,100192.94
2023-05-15T01:49:56.293Z,100166.06
2023-05-15T02:00:00.139Z,100167.16
2023-05-15T02:10:02.922Z,100169.50
2023-05-15T02:20:08.780Z,100155.13
2023-05-15T02:30:16.708Z,100139.03
2023-05-15T02:40:21.961Z,100103.13
2023-05-15T02:50:24.002Z,100080.53
2023-05-15T03:00:29.354Z,100074.91
2023-05-15T03:10:43.335Z,100067.56
2023-05-15T03:20:53.228Z,100042.00
2023-05-15T03:30:57.328Z,100028.91
2023-05-15T03:40:59.230Z,100018.00
2023-05-15T03:51:01.191Z,100012.69
2023-05-15T04:01:04.388Z,100018.00
2023-05-15T04:11:06.933Z,99986.94
2023-05-15T04:21:08.853Z,99949.50
2023-05-15T04:31:17.280Z,99972.91
2023-05-15T04:41:21.245Z,99975.41
2023-05-15T04:51:23.159Z,99974.78
2023-05-15T05:01:46.204Z,99957.94
2023-05-15T05:11:48.361Z,99920.00
2023-05-15T05:21:54.731Z,99923.34
2023-05-15T05:32:00.295Z,99911.94
2023-05-15T05:42:02.598Z,99915.06
2023-05-15T05:52:08.667Z,99921.59
2023-05-15T06:02:22.888Z,99931.72
2023-05-15T06:12:37.189Z,99945.56
2023-05-15T06:22:39.443Z,99952.72
2023-05-15T06:32:42.284Z,99948.75
2023-05-15T06:42:44.949Z,99948.28
2023-05-15T06:52:46.966Z,99935.44
2023-05-15T07:02:52.124Z,99932.06
2023-05-15T07:12:54.161Z,99938.78
2023-05-15T07:22:56.932Z,99928.69
2023-05-15T07:33:16.649Z,99932.59
2023-05-15T07:43:24.638Z,99911.28
2023-05-15T07:53:30.672Z,99914.94
2023-05-15T08:03:33.253Z,99897.91
2023-05-15T08:13:37.445Z,99890.16
2023-05-15T08:23:44.692Z,99889.94
2023-05-15T08:33:55.649Z,99872.41
2023-05-15T08:43:59.252Z,99855.56
2023-05-15T08:54:01.303Z,99845.88
2023-05-15T09:04:05.992Z,99855.25
2023-05-15T09:14:15.569Z,99840.22
2023-05-15T09:24:25.681Z,99820.56
2023-05-15T09:34:43.041Z,99822.91
2023-05-15T09:44:46.581Z,99824.16
2023-05-15T09:54:50.694Z,99804.41
2023-05-15T10:04:57.338Z,99805.97
2023-05-15T10:15:04.019Z,99820.38
2023-05-15T10:25:34.955Z,99827.34
2023-05-15T10:35:52.399Z,99832.44
2023-05-15T10:45:55.962Z,99816.09
2023-05-15T10:55:58.130Z,99819.72
2023-05-15T11:06:10.067Z,99815.06
2023-05-15T11:16:12.902Z,99803.13
2023-05-15T11:26:16.056Z,99809.34
2023-05-15T11:36:23.911Z,99802.66
2023-05-15T11:46:33.819Z,99790.41
2023-05-15T11:56:35.696Z,99782.81
2023-05-15T12:06:38.787Z,99771.19
2023-05-15T12:16:43.840Z,99775.72
2023-05-15T12:26:46.937Z,99765.63
2023-05-15T12:36:50.886Z,99754.44
2023-05-15T12:46:55.882Z,99712.16
2023-05-15T12:56:58.326Z,99728.66
2023-05-15T13:07:02.264Z,99713.34
2023-05-15T13:17:08.475Z,99702.16
2023-05-15T13:27:10.442Z,99690.63
2023-05-15T13:37:12.397Z,99695.34
2023-05-15T13:47:14.389Z,99685.56
2023-05-15T13:57:16.619Z,99672.97
2023-05-15T14:07:24.504Z,99670.28
2023-05-15T14:17:28.155Z,99671.97
2023-05-15T14:27:32.195Z,99653.56
2023-05-15T14:37:34.252Z,99670.69
2023-05-15T14:47:40.662Z,99663.97
2023-05-15T14:57:42.672Z,99662.69
2023-05-15T15:08:02.084Z,99686.44
2023-05-15T15:18:10.445Z,99662.00
2023-05-15T15:28:16.805Z,99653.06
2023-05-15T15:38:23.865Z,99645.84
2023-05-15T15:48:28.107Z,99628.81
2023-05-15T15:58:37.330Z,99631.09
2023-05-15T16:08:39.321Z,99624.88
2023-05-15T16:18:41.368Z,99615.81
2023-05-15T16:28:43.379Z,99643.19
2023-05-15T16:38:45.518Z,99619.63
2023-05-15T16:49:04.658Z,99644.13
2023-05-15T16:59:16.540Z,99634.59
2023-05-15T17:09:18.644Z,99622.31
2023-05-15T17:19:28.414Z,99609.38
2023-05-15T17:29:43.419Z,99627.47
2023-05-15T17:39:45.465Z,99640.84
2023-05-15T17:49:48.553Z,99655.84
2023-05-15T17:59:50.592Z,99660.25
2023-05-15T18:09:53.675Z,99663.53
2023-05-15T18:19:55.716Z,99693.63
2023-05-15T18:29:58.194Z,99692.84
2023-05-15T18:40:00.259Z,99681.97
2023-05-15T18:50:12.017Z,99689.56
2023-05-15T19:00:18.893Z,99706.00
2023-05-15T19:10:29.734Z,99711.22
2023-05-15T19:20:38.955Z,99708.25
2023-05-15T19:30:41.448Z,99717.69
2023-05-15T19:40:45.887Z,99709.03
2023-05-15T19:50:47.974Z,99699.81
2023-05-15T20:00:53.005Z,99722.34
2023-05-15T20:10:55.213Z,99713.06
2023-05-15T20:21:02.312Z,99721.72
2023-05-15T20:31:04.455Z,99722.25
2023-05-15T20:41:23.212Z,99715.75
2023-05-15T20:51:25.402Z,99716.44
2023-05-15T21:01:27.397Z,99705.75
2023-05-15T21:11:54.935Z,99711.50
2023-05-15T21:21:56.883Z,99704.06
2023-05-15T21:32:05.996Z,99708.91
2023-05-15T21:42:11.184Z,99710.44
2023-05-15T21:52:18.973Z,99719.97
2023-05-15T22:02:21.035Z,99725.94
2023-05-15T22:12:23.057Z,99737.25
2023-05-15T22:22:24.931Z,99734.38
2023-05-15T22:32:26.964Z,99748.63
2023-05-15T22:42:29.035Z,99752.94
2023-05-15T22:52:30.867Z,99747.78
2023-05-15T23:02:34.911Z,99751.91
2023-05-15T23:12:36.810Z,99762.97
2023-05-15T23:22:39.604Z,99742.91
2023-05-15T23:32:41.653Z,99752.28
2023-05-15T23:42:43.547Z,99745.94
2023-05-15T23:52:45.481Z,99738.13
